Time;durP1;ratioP1;P1;durP2;ratioP2;P2;SDS_P1;SDS_P2;PMS_P1;PMS_P2;Temp;Humidity;BMP_temperature;BMP_pressure;BME280_temperature;BME280_humidity;BME280_pressure;Samples;Min_cycle;Max_cycle;Signal;HPM_P1;HPM_P2
2023/03/05 00:01:25;;;;;;;;;;;;;;;-2.43;54.17;100655.16;108057;1256;59332;-82
2023/03/05 00:03:55;;;;;;;;;;;;;;;-2.44;54.19;100652.08;107812;1254;72526;-82
2023/03/05 00:06:23;;;;;;;;;;;;;;;-2.43;54.24;100651.77;107563;1254;124057;-82
2023/03/05 00:08:52;;;;;;;;;;;;;;;-2.44;54.44;100645.71;108272;1254;70404;-82
2023/03/05 00:11:19;;;;;;;;;;;;;;;-2.44;54.45;100646.53;107818;1255;124397;-82
2023/03/05 00:13:46;;;;;;;;;;;;;;;-2.42;54.48;100642.41;107899;1254;59505;-82
2023/03/05 00:16:16;;;;;;;;;;;;;;;-2.39;54.46;100636.06;107844;1255;72411;-83
2023/03/05 00:18:45;;;;;;;;;;;;;;;-2.40;54.46;100635.19;107592;1254;124957;-83
2023/03/05 00:21:23;;;;;;;;;;;;;;;-2.38;54.66;100628.79;107699;1254;72712;-83
2023/03/05 00:23:50;;;;;;;;;;;;;;;-2.37;54.64;100629.91;107422;1256;124725;-83
2023/03/05 00:26:18;;;;;;;;;;;;;;;-2.36;54.66;100625.50;107581;1259;59291;-83
2023/03/05 00:28:49;;;;;;;;;;;;;;;-2.36;54.67;100623.98;107805;1254;74405;-83
2023/03/05 00:31:20;;;;;;;;;;;;;;;-2.33;54.65;100618.46;107739;1257;124329;-82
2023/03/05 00:33:54;;;;;;;;;;;;;;;-2.34;54.67;100615.85;108942;1254;73217;-82
2023/03/05 00:36:21;;;;;;;;;;;;;;;-2.34;54.70;100612.21;108683;1254;124049;-82
2023/03/05 00:38:48;;;;;;;;;;;;;;;-2.35;54.71;100614.41;107513;1256;60103;-82
2023/03/05 00:41:16;;;;;;;;;;;;;;;-2.36;54.70;100616.55;107542;1254;124251;-82
2023/03/05 00:43:43;;;;;;;;;;;;;;;-2.38;54.85;100609.88;107610;1254;66431;-82
2023/03/05 00:46:10;;;;;;;;;;;;;;;-2.40;54.76;100614.20;107623;1258;71713;-82
2023/03/05 00:48:37;;;;;;;;;;;;;;;-2.41;54.78;100614.15;107656;1254;124118;-82
2023/03/05 00:51:04;;;;;;;;;;;;;;;-2.38;55.00;100615.39;108052;1254;59241;-83
2023/03/05 00:53:31;;;;;;;;;;;;;;;-2.38;54.92;100616.23;107756;1254;124995;-83
2023/03/05 00:56:09;;;;;;;;;;;;;;;-2.36;54.90;100613.27;107691;1257;65832;-83
2023/03/05 00:58:37;;;;;;;;;;;;;;;-2.33;55.08;100611.77;107722;1254;72671;-83
2023/03/05 01:01:04;;;;;;;;;;;;;;;-2.31;55.09;100609.49;107464;1254;124202;-82
2023/03/05 01:03:31;;;;;;;;;;;;;;;-2.30;55.18;100606.30;107322;1262;61302;-82
2023/03/05 01:06:06;;;;;;;;;;;;;;;-2.30;55.38;100595.84;107524;1255;124742;-82
2023/03/05 01:08:33;;;;;;;;;;;;;;;-2.28;55.62;100594.41;107384;1256;67049;-82
2023/03/05 01:11:01;;;;;;;;;;;;;;;-2.26;55.71;100583.92;107514;1254;73200;-82
2023/03/05 01:13:28;;;;;;;;;;;;;;;-2.25;55.95;100578.50;107572;1257;61148;-82
2023/03/05 01:15:55;;;;;;;;;;;;;;;-2.25;56.04;100585.39;107454;1256;61824;-82
2023/03/05 01:18:22;;;;;;;;;;;;;;;-2.26;56.21;100587.53;107360;1254;124404;-82
2023/03/05 01:20:49;;;;;;;;;;;;;;;-2.24;56.50;100582.52;107629;1254;67916;-81
2023/03/05 01:23:16;;;;;;;;;;;;;;;-2.19;56.72;100583.13;107464;1260;124241;-82
2023/03/05 01:25:43;;;;;;;;;;;;;;;-2.10;57.03;100581.68;107514;1256;61266;-82
2023/03/05 01:28:10;;;;;;;;;;;;;;;-2.01;57.18;100577.29;107497;1256;61542;-82
2023/03/05 01:30:38;;;;;;;;;;;;;;;-1.96;57.22;100571.29;107689;1254;124286;-83
2023/03/05 01:33:05;;;;;;;;;;;;;;;-1.97;57.06;100568.02;107554;1254;65929;-83
2023/03/05 01:35:32;;;;;;;;;;;;;;;-2.00;57.18;100570.19;107883;1254;124524;-83
2023/03/05 01:37:59;;;;;;;;;;;;;;;-2.05;57.34;100565.53;107509;1254;60490;-82
2023/03/05 01:40:27;;;;;;;;;;;;;;;-2.10;57.40;100562.45;108170;1254;61381;-82
2023/03/05 01:43:07;;;;;;;;;;;;;;;-2.15;57.48;100557.24;107798;1259;124260;-82
2023/03/05 01:45:34;;;;;;;;;;;;;;;-2.21;57.62;100556.10;108095;1256;67411;-83
2023/03/05 01:48:01;;;;;;;;;;;;;;;-2.26;57.60;100547.65;107683;1254;124579;-83
2023/03/05 01:50:28;;;;;;;;;;;;;;;-2.31;57.90;100547.61;107930;1254;61350;-83
2023/03/05 01:53:00;;;;;;;;;;;;;;;-2.38;58.04;100542.70;108140;1254;61801;-83
2023/03/05 01:55:27;;;;;;;;;;;;;;;-2.43;58.13;100543.70;108121;1254;73584;-83
2023/03/05 01:57:56;;;;;;;;;;;;;;;-2.49;58.33;100538.78;108192;1254;65562;-83
2023/03/05 02:00:28;;;;;;;;;;;;;;;-2.54;58.61;100535.48;107686;1254;124890;-83
2023/03/05 02:02:55;;;;;;;;;;;;;;;-2.61;58.73;100533.65;107795;1257;61039;-83
2023/03/05 02:05:25;;;;;;;;;;;;;;;-2.66;58.91;100529.30;108012;1256;123890;-83
2023/03/05 02:07:56;;;;;;;;;;;;;;;-2.71;59.07;100527.00;108243;1254;73604;-83
2023/03/05 02:10:27;;;;;;;;;;;;;;;-2.77;59.34;100530.68;108032;1254;67311;-82
2023/03/05 02:12:55;;;;;;;;;;;;;;;-2.81;59.65;100528.33;108145;1254;124266;-83
2023/03/05 02:15:22;;;;;;;;;;;;;;;-2.86;59.89;100530.05;108037;1254;61399;-83
2023/03/05 02:17:49;;;;;;;;;;;;;;;-2.90;60.41;100528.55;108462;1254;123122;-83
2023/03/05 02:20:20;;;;;;;;;;;;;;;-2.93;60.47;100530.73;108060;1254;74731;-82
2023/03/05 02:22:49;;;;;;;;;;;;;;;-2.97;60.63;100529.90;108029;1254;67410;-82
2023/03/05 02:25:27;;;;;;;;;;;;;;;-3.01;61.03;100527.92;107899;1257;124284;-83
2023/03/05 02:27:58;;;;;;;;;;;;;;;-3.02;61.44;100527.98;107921;1254;60294;-83
2023/03/05 02:30:25;;;;;;;;;;;;;;;-3.03;61.61;100522.40;107965;1254;124171;-83
2023/03/05 02:32:53;;;;;;;;;;;;;;;-3.05;61.83;100518.35;107881;1254;74755;-83
2023/03/05 02:35:20;;;;;;;;;;;;;;;-3.06;62.12;100515.35;107698;1254;126024;-82
2023/03/05 02:37:47;;;;;;;;;;;;;;;-3.06;62.33;100516.36;107655;1259;71727;-82
2023/03/05 02:40:14;;;;;;;;;;;;;;;-3.06;62.48;100509.82;107461;1254;60039;-81
2023/03/05 02:42:42;;;;;;;;;;;;;;;-3.06;62.58;100506.21;107568;1254;124262;-82
2023/03/05 02:45:09;;;;;;;;;;;;;;;-3.06;62.72;100502.11;107674;1254;75178;-81
2023/03/05 02:47:38;;;;;;;;;;;;;;;-3.05;62.71;100501.52;107318;1256;124679;-81
2023/03/05 02:50:06;;;;;;;;;;;;;;;-3.03;62.71;100499.91;107500;1255;73329;-82
2023/03/05 02:52:36;;;;;;;;;;;;;;;-3.03;62.76;100495.83;107627;1255;60378;-82
2023/03/05 02:55:03;;;;;;;;;;;;;;;-3.03;62.72;100493.25;107729;1254;124287;-82
2023/03/05 02:57:30;;;;;;;;;;;;;;;-3.02;62.82;100489.86;107899;1254;74666;-82
2023/03/05 02:59:57;;;;;;;;;;;;;;;-3.01;62.82;100487.02;107713;1254;124120;-82
2023/03/05 03:02:25;;;;;;;;;;;;;;;-3.01;62.78;100477.11;107940;1254;72752;-82
2023/03/05 03:04:52;;;;;;;;;;;;;;;-3.00;62.78;100472.84;109125;1254;59141;-82
2023/03/05 03:07:20;;;;;;;;;;;;;;;-3.01;62.68;100471.94;108123;1254;124821;-82
2023/03/05 03:09:47;;;;;;;;;;;;;;;-3.01;62.79;100465.09;107853;1256;74384;-82
2023/03/05 03:12:14;;;;;;;;;;;;;;;-2.99;62.80;100466.20;107460;1255;124262;-82
2023/03/05 03:14:42;;;;;;;;;;;;;;;-2.98;62.69;100464.09;107580;1255;71084;-82
2023/03/05 03:17:10;;;;;;;;;;;;;;;-2.97;62.80;100456.98;107610;1254;124228;-82
2023/03/05 03:19:39;;;;;;;;;;;;;;;-2.96;62.77;100455.27;107777;1254;60338;-82
2023/03/05 03:22:06;;;;;;;;;;;;;;;-2.96;62.71;100452.89;107840;1255;72204;-82
2023/03/05 03:24:33;;;;;;;;;;;;;;;-2.96;62.75;100452.09;107642;1257;124232;-82
2023/03/05 03:27:02;;;;;;;;;;;;;;;-2.94;62.67;100449.13;107751;1254;71823;-81
2023/03/05 03:29:29;;;;;;;;;;;;;;;-2.91;62.74;100445.88;107859;1254;124436;-82
2023/03/05 03:31:56;;;;;;;;;;;;;;;-2.88;62.68;100441.98;107828;1254;60230;-83
2023/03/05 03:34:23;;;;;;;;;;;;;;;-2.83;62.71;100437.21;107507;1255;74521;-82
2023/03/05 03:36:51;;;;;;;;;;;;;;;-2.74;62.88;100438.04;107480;1254;124987;-82
2023/03/05 03:39:18;;;;;;;;;;;;;;;-2.60;62.89;100436.80;107840;1255;72811;-82
2023/03/05 03:41:46;;;;;;;;;;;;;;;-2.44;63.09;100435.02;108024;1254;124836;-83
2023/03/05 03:44:13;;;;;;;;;;;;;;;-2.29;63.10;100435.06;108291;1255;60695;-82
2023/03/05 03:46:43;;;;;;;;;;;;;;;-2.13;62.95;100434.10;107837;1257;73996;-83
2023/03/05 03:49:14;;;;;;;;;;;;;;;-1.96;62.98;100446.98;107621;1254;124683;-83
2023/03/05 03:51:47;;;;;;;;;;;;;;;-1.80;63.19;100457.42;107890;1254;70279;-82
2023/03/05 03:54:15;;;;;;;;;;;;;;;-1.62;63.16;100464.77;107679;1255;124638;-82
2023/03/05 03:56:45;;;;;;;;;;;;;;;-1.48;63.33;100464.20;107696;1254;59319;-83
2023/03/05 03:59:16;;;;;;;;;;;;;;;-1.37;63.22;100458.96;107516;1254;124954;-82
2023/03/05 04:01:43;;;;;;;;;;;;;;;-1.30;63.86;100454.42;107604;1254;66335;-82
2023/03/05 04:04:16;;;;;;;;;;;;;;;-1.30;68.03;100437.22;107637;1256;71385;-83
2023/03/05 04:06:51;;;;;;;;;;;;;;;-1.36;67.08;100424.25;107688;1257;123218;-83
2023/03/05 04:09:18;;;;;;;;;;;;;;;-1.49;66.29;100421.47;107864;1258;61239;-83
2023/03/05 04:11:47;;;;;;;;;;;;;;;-1.63;65.97;100423.47;107850;1255;124881;-83
2023/03/05 04:14:14;;;;;;;;;;;;;;;-1.77;65.89;100425.05;107685;1255;65458;-82
2023/03/05 04:16:41;;;;;;;;;;;;;;;-1.90;65.97;100424.52;107586;1257;72677;-83
2023/03/05 04:19:09;;;;;;;;;;;;;;;-2.00;65.98;100421.80;107699;1256;124175;-82
2023/03/05 04:21:38;;;;;;;;;;;;;;;-2.07;66.12;100407.88;107822;1255;61203;-83
2023/03/05 04:24:07;;;;;;;;;;;;;;;-2.14;66.32;100399.30;107892;1256;124784;-82
2023/03/05 04:26:34;;;;;;;;;;;;;;;-2.22;66.28;100399.92;108069;1256;67544;-83
2023/03/05 04:29:01;;;;;;;;;;;;;;;-2.32;66.37;100400.44;108235;1255;72692;-83
2023/03/05 04:31:28;;;;;;;;;;;;;;;-2.41;66.46;100393.65;107922;1256;124214;-83
2023/03/05 04:34:01;;;;;;;;;;;;;;;-2.49;66.42;100394.62;107719;1255;60555;-83
2023/03/05 04:36:41;;;;;;;;;;;;;;;-2.59;66.46;100401.83;107714;1256;124156;-83
2023/03/05 04:39:10;;;;;;;;;;;;;;;-2.68;66.33;100402.40;107955;1257;65642;-84
2023/03/05 04:41:38;;;;;;;;;;;;;;;-2.77;66.33;100403.45;108716;1259;124498;-83
2023/03/05 04:44:05;;;;;;;;;;;;;;;-2.84;66.50;100410.49;107861;1256;59897;-83
2023/03/05 04:46:32;;;;;;;;;;;;;;;-2.91;66.62;100414.06;108121;1255;60153;-83
2023/03/05 04:48:59;;;;;;;;;;;;;;;-2.98;66.79;100412.63;107984;1256;124303;-83
2023/03/05 04:51:27;;;;;;;;;;;;;;;-3.02;66.80;100418.27;107841;1259;67190;-83
2023/03/05 04:53:54;;;;;;;;;;;;;;;-3.08;66.88;100415.30;107822;1257;124353;-82
2023/03/05 04:56:21;;;;;;;;;;;;;;;-3.13;66.88;100408.59;107769;1257;59358;-83
2023/03/05 04:58:48;;;;;;;;;;;;;;;-3.17;66.95;100402.09;107846;1255;61267;-83
2023/03/05 05:01:15;;;;;;;;;;;;;;;-3.21;66.96;100399.23;108862;1256;124075;-83
2023/03/05 05:03:48;;;;;;;;;;;;;;;-3.25;67.02;100395.67;108429;1256;65214;-83
2023/03/05 05:06:16;;;;;;;;;;;;;;;-3.30;67.09;100392.55;107966;1255;124738;-82
2023/03/05 05:08:50;;;;;;;;;;;;;;;-3.34;67.13;100392.09;108152;1257;59583;-82
2023/03/05 05:11:17;;;;;;;;;;;;;;;-3.37;67.22;100391.68;107785;1256;124355;-83
2023/03/05 05:13:56;;;;;;;;;;;;;;;-3.40;67.16;100389.91;107933;1256;74467;-83
2023/03/05 05:16:25;;;;;;;;;;;;;;;-3.44;67.29;100394.24;107995;1256;67119;-84
2023/03/05 05:19:04;;;;;;;;;;;;;;;-3.48;67.25;100393.62;107833;1256;124335;-83
2023/03/05 05:21:33;;;;;;;;;;;;;;;-3.51;67.45;100392.35;108058;1256;61238;-83
2023/03/05 05:24:00;;;;;;;;;;;;;;;-3.54;67.37;100391.63;107775;1261;124593;-82
2023/03/05 05:26:27;;;;;;;;;;;;;;;-3.55;67.42;100394.09;107840;1257;73376;-82
2023/03/05 05:28:57;;;;;;;;;;;;;;;-3.57;67.39;100393.15;107636;1257;67158;-83
2023/03/05 05:31:24;;;;;;;;;;;;;;;-3.57;67.48;100393.27;107595;1256;125031;-83
2023/03/05 05:33:57;;;;;;;;;;;;;;;-3.57;67.48;100393.98;107606;1256;59403;-82
2023/03/05 05:36:24;;;;;;;;;;;;;;;-3.56;67.56;100393.20;107613;1256;124383;-82
2023/03/05 05:38:51;;;;;;;;;;;;;;;-3.55;67.57;100391.23;107531;1256;74722;-83
2023/03/05 05:41:18;;;;;;;;;;;;;;;-3.54;67.49;100390.83;107613;1257;124662;-83
2023/03/05 05:43:46;;;;;;;;;;;;;;;-3.52;67.57;100388.55;107715;1255;72714;-83
2023/03/05 05:46:16;;;;;;;;;;;;;;;-3.51;67.46;100380.38;107586;1257;60234;-82
2023/03/05 05:48:43;;;;;;;;;;;;;;;-3.48;67.61;100383.17;107488;1256;124614;-83
2023/03/05 05:51:15;;;;;;;;;;;;;;;-3.44;67.56;100385.49;107279;1256;74498;-83
2023/03/05 05:53:44;;;;;;;;;;;;;;;-3.41;67.51;100387.09;107290;1257;124237;-83
2023/03/05 05:56:15;;;;;;;;;;;;;;;-3.37;67.59;100386.18;107494;1257;72391;-83
2023/03/05 05:59:01;;;;;;;;;;;;;;;-3.33;67.54;100383.92;107426;1255;62088;-83
2023/03/05 06:01:40;;;;;;;;;;;;;;;-3.27;67.61;100384.83;107302;1257;124069;-83
2023/03/05 06:04:07;;;;;;;;;;;;;;;-3.22;67.53;100382.13;107434;1256;73081;-83
2023/03/05 06:06:39;;;;;;;;;;;;;;;-3.18;67.60;100379.23;107775;1256;124181;-84
2023/03/05 06:09:06;;;;;;;;;;;;;;;-3.12;67.53;100373.98;107661;1258;72714;-83
2023/03/05 06:11:36;;;;;;;;;;;;;;;-3.04;67.53;100376.57;107916;1255;124816;-84
2023/03/05 06:14:03;;;;;;;;;;;;;;;-2.99;67.46;100374.27;107926;1255;62267;-84
2023/03/05 06:16:30;;;;;;;;;;;;;;;-2.92;67.39;100373.50;107889;1257;73340;-84
2023/03/05 06:18:57;;;;;;;;;;;;;;;-2.85;67.39;100374.03;107964;1255;124648;-82
2023/03/05 06:21:24;;;;;;;;;;;;;;;-2.78;67.34;100375.04;107819;1256;72700;-82
2023/03/05 06:23:51;;;;;;;;;;;;;;;-2.70;67.28;100373.18;107780;1257;124702;-82
2023/03/05 06:26:19;;;;;;;;;;;;;;;-2.64;67.25;100370.39;107885;1255;61311;-83
2023/03/05 06:28:46;;;;;;;;;;;;;;;-2.56;67.13;100367.55;107568;1257;74741;-82
2023/03/05 06:31:20;;;;;;;;;;;;;;;-2.47;67.07;100366.42;107399;1254;124406;-82
2023/03/05 06:33:48;;;;;;;;;;;;;;;-2.39;66.84;100365.27;107487;1255;71554;-82
2023/03/05 06:36:16;;;;;;;;;;;;;;;-2.30;66.79;100365.34;107505;1256;124733;-82
2023/03/05 06:38:43;;;;;;;;;;;;;;;-2.22;66.65;100363.02;107788;1254;61305;-83
2023/03/05 06:41:12;;;;;;;;;;;;;;;-2.14;66.50;100360.48;107517;1257;124762;-83
2023/03/05 06:43:39;;;;;;;;;;;;;;;-2.06;66.43;100358.27;107718;1262;65262;-83
2023/03/05 06:46:16;;;;;;;;;;;;;;;-1.98;66.15;100357.79;108319;1257;70754;-83
2023/03/05 06:48:44;;;;;;;;;;;;;;;-1.88;66.00;100359.47;108260;1254;124850;-83
2023/03/05 06:51:32;;;;;;;;;;;;;;;-1.81;65.90;100353.27;107988;1254;59321;-82
2023/03/05 06:54:00;;;;;;;;;;;;;;;-1.72;65.67;100355.42;107705;1257;124523;-83
2023/03/05 06:56:27;;;;;;;;;;;;;;;-1.64;65.58;100357.30;107874;1257;67231;-83
2023/03/05 06:59:20;;;;;;;;;;;;;;;-1.56;65.49;100356.80;108076;1255;72771;-84
2023/03/05 07:01:49;;;;;;;;;;;;;;;-1.47;65.26;100355.73;107844;1256;60104;-83
2023/03/05 07:04:18;;;;;;;;;;;;;;;-1.38;65.05;100354.05;107558;1257;59585;-82
2023/03/05 07:06:45;;;;;;;;;;;;;;;-1.29;64.60;100351.41;107511;1256;124744;-82
2023/03/05 07:09:19;;;;;;;;;;;;;;;-1.19;64.29;100350.17;107603;1255;67596;-86
2023/03/05 07:12:06;;;;;;;;;;;;;;;-1.09;63.90;100350.77;107200;1254;124325;-86
2023/03/05 07:14:55;;;;;;;;;;;;;;;-0.98;63.54;100347.01;107392;1255;60495;-85
2023/03/05 07:17:22;;;;;;;;;;;;;;;-0.86;63.11;100343.80;107591;1257;124655;-82
2023/03/05 07:19:49;;;;;;;;;;;;;;;-0.77;62.93;100347.17;107982;1258;73347;-80
2023/03/05 07:22:17;;;;;;;;;;;;;;;-0.67;62.78;100345.05;107653;1256;67581;-81
2023/03/05 07:24:44;;;;;;;;;;;;;;;-0.57;62.11;100342.05;107496;1255;123935;-81
2023/03/05 07:27:12;;;;;;;;;;;;;;;-0.47;61.95;100338.39;107489;1257;61078;-82
2023/03/05 07:29:39;;;;;;;;;;;;;;;-0.36;61.55;100338.67;107527;1257;124068;-82
2023/03/05 07:32:06;;;;;;;;;;;;;;;-0.27;61.26;100337.86;107590;1255;74935;-81
2023/03/05 07:34:35;;;;;;;;;;;;;;;-0.17;60.91;100335.21;107631;1256;65675;-82
2023/03/05 07:37:09;;;;;;;;;;;;;;;-0.06;60.72;100334.66;107350;1256;124159;-84
2023/03/05 07:39:45;;;;;;;;;;;;;;;0.06;60.59;100334.33;107280;1254;61255;-84
2023/03/05 07:42:13;;;;;;;;;;;;;;;0.18;60.61;100337.80;107110;1256;124402;-84
2023/03/05 07:44:46;;;;;;;;;;;;;;;0.30;60.33;100331.06;107433;1254;73338;-85
2023/03/05 07:47:14;;;;;;;;;;;;;;;0.40;60.15;100333.41;107340;1255;65905;-83
2023/03/05 07:49:44;;;;;;;;;;;;;;;0.48;59.84;100329.73;107236;1257;123784;-84
2023/03/05 07:52:13;;;;;;;;;;;;;;;0.55;59.73;100330.00;107406;1257;60907;-86
2023/03/05 07:54:40;;;;;;;;;;;;;;;0.62;59.39;100322.92;107984;1257;124394;-81
2023/03/05 07:57:07;;;;;;;;;;;;;;;0.66;58.99;100329.93;108118;1257;73304;-81
2023/03/05 07:59:35;;;;;;;;;;;;;;;0.69;58.87;100326.83;108017;1255;124401;-81
2023/03/05 08:02:18;;;;;;;;;;;;;;;0.74;58.87;100325.90;107496;1256;73739;-84
2023/03/05 08:04:59;;;;;;;;;;;;;;;0.80;58.66;100329.98;107784;1256;61377;-84
2023/03/05 08:07:27;;;;;;;;;;;;;;;0.85;58.51;100324.95;107656;1256;124040;-84
2023/03/05 08:10:03;;;;;;;;;;;;;;;0.90;58.26;100324.17;107862;1259;74684;-83
2023/03/05 08:12:36;;;;;;;;;;;;;;;0.95;58.03;100322.23;107757;1257;124137;-86
2023/03/05 08:15:12;;;;;;;;;;;;;;;1.01;57.50;100324.46;107439;1259;72695;-84
2023/03/05 08:17:38;;;;;;;;;;;;;;;1.06;57.11;100323.70;107383;1259;123921;-82
2023/03/05 08:20:09;;;;;;;;;;;;;;;1.12;57.27;100323.17;107728;1259;59946;-85
2023/03/05 08:22:45;;;;;;;;;;;;;;;1.17;56.88;100318.30;107378;1259;72244;-85
2023/03/05 08:25:18;;;;;;;;;;;;;;;1.23;56.72;100316.36;107385;1263;124294;-85
2023/03/05 08:27:51;;;;;;;;;;;;;;;1.28;56.33;100309.70;107411;1259;71761;-85
2023/03/05 08:30:21;;;;;;;;;;;;;;;1.34;56.33;100312.13;107067;1259;123820;-85
2023/03/05 08:32:49;;;;;;;;;;;;;;;1.41;55.94;100306.60;107324;1263;61270;-84
2023/03/05 08:35:30;;;;;;;;;;;;;;;1.47;55.70;100303.83;107427;1260;74712;-84
2023/03/05 08:38:15;;;;;;;;;;;;;;;1.53;55.68;100301.73;107046;1259;67584;-85
2023/03/05 08:40:43;;;;;;;;;;;;;;;1.58;55.16;100298.01;107296;1257;70720;-85
2023/03/05 08:43:12;;;;;;;;;;;;;;;1.62;55.05;100299.09;107317;1257;123993;-82
2023/03/05 08:45:42;;;;;;;;;;;;;;;1.65;55.09;100295.13;107509;1261;61231;-82
2023/03/05 08:55:12;;;;;;;;;;;;;;;1.95;54.75;100290.27;107576;1258;124148;-86
2023/03/05 08:57:39;;;;;;;;;;;;;;;2.19;54.63;100291.70;107906;1257;61248;-81
2023/03/05 09:03:12;;;;;;;;;;;;;;;2.76;53.56;100287.78;107185;1257;74689;-86
2023/03/05 09:05:51;;;;;;;;;;;;;;;2.98;53.21;100288.33;107364;1257;123893;-86
2023/03/05 09:08:24;;;;;;;;;;;;;;;3.15;52.94;100282.02;107567;1254;72732;-87
2023/03/05 09:11:13;;;;;;;;;;;;;;;3.23;52.60;100287.19;107290;1254;60472;-88
2023/03/05 09:13:40;;;;;;;;;;;;;;;3.26;52.19;100282.33;107578;1257;60400;-86
2023/03/05 09:16:15;;;;;;;;;;;;;;;3.26;51.92;100279.91;107419;1261;74666;-87
2023/03/05 09:18:43;;;;;;;;;;;;;;;3.30;51.67;100289.81;107522;1254;124309;-85
2023/03/05 09:21:26;;;;;;;;;;;;;;;3.31;51.11;100290.91;107188;1256;72681;-84
2023/03/05 09:24:23;;;;;;;;;;;;;;;3.32;50.33;100291.48;107377;1254;124585;-85
2023/03/05 09:27:08;;;;;;;;;;;;;;;3.49;50.86;100287.07;107558;1254;61051;-84
2023/03/05 09:30:04;;;;;;;;;;;;;;;3.78;50.32;100287.98;107672;1254;124333;-84
2023/03/05 09:36:07;;;;;;;;;;;;;;;3.75;48.73;100280.58;107259;1259;123926;-86
2023/03/05 09:38:35;;;;;;;;;;;;;;;3.56;48.24;100285.64;107347;1256;61283;-83
2023/03/05 09:41:09;;;;;;;;;;;;;;;3.36;48.14;100285.24;107341;1254;295792;-86
2023/03/05 09:44:14;;;;;;;;;;;;;;;3.24;48.12;100297.32;107816;1257;124351;-83
2023/03/05 09:47:15;;;;;;;;;;;;;;;3.17;48.36;100286.25;107152;1262;65795;-86
2023/03/05 09:52:54;;;;;;;;;;;;;;;3.16;47.18;100295.74;108091;1258;61071;-84
2023/03/05 09:55:26;;;;;;;;;;;;;;;3.14;46.96;100300.15;107761;1257;123813;-84
2023/03/05 09:57:55;;;;;;;;;;;;;;;3.06;46.63;100284.34;108054;1256;75306;-81
2023/03/05 10:00:33;;;;;;;;;;;;;;;3.02;46.83;100288.11;108127;1256;124084;-82
2023/03/05 10:03:03;;;;;;;;;;;;;;;2.90;46.44;100287.41;108105;1257;71137;-83
2023/03/05 10:05:36;;;;;;;;;;;;;;;2.74;46.33;100283.70;107760;1262;124525;-82
2023/03/05 10:08:03;;;;;;;;;;;;;;;2.61;46.49;100280.98;108180;1257;60618;-83
2023/03/05 10:10:37;;;;;;;;;;;;;;;2.58;46.62;100277.17;108097;1256;72936;-83
2023/03/05 10:13:04;;;;;;;;;;;;;;;2.60;46.70;100273.31;107948;1257;123774;-83
2023/03/05 10:15:50;;;;;;;;;;;;;;;2.64;46.40;100276.42;107807;1261;74034;-83
2023/03/05 10:18:37;;;;;;;;;;;;;;;2.64;46.56;100268.29;108129;1260;124344;-83
2023/03/05 10:21:23;;;;;;;;;;;;;;;2.72;46.56;100271.80;108043;1254;59995;-87
2023/03/05 10:27:33;;;;;;;;;;;;;;;2.92;46.20;100264.64;108014;1254;66919;-86
2023/03/05 10:34:04;;;;;;;;;;;;;;;3.00;46.20;100268.80;107337;1257;61221;-86
2023/03/05 10:36:46;;;;;;;;;;;;;;;3.10;46.25;100270.34;107257;1257;123736;-86
2023/03/05 10:39:32;;;;;;;;;;;;;;;3.20;46.09;100265.92;107619;1258;72210;-87
2023/03/05 10:48:29;;;;;;;;;;;;;;;3.55;45.98;100255.91;107279;1255;124230;-87
2023/03/05 10:51:01;;;;;;;;;;;;;;;3.67;45.63;100256.63;107487;1259;60174;-83
2023/03/05 10:53:32;;;;;;;;;;;;;;;3.67;45.18;100258.88;107412;1257;75015;-82
2023/03/05 10:56:03;;;;;;;;;;;;;;;3.54;44.75;100265.09;107622;1262;64761;-83
2023/03/05 10:58:30;;;;;;;;;;;;;;;3.30;44.58;100268.14;108332;1259;71447;-83
2023/03/05 11:00:58;;;;;;;;;;;;;;;3.11;44.85;100263.26;107713;1261;123942;-83
2023/03/05 11:03:25;;;;;;;;;;;;;;;3.09;45.35;100261.28;107426;1257;62092;-83
2023/03/05 11:06:01;;;;;;;;;;;;;;;3.13;45.16;100258.33;107281;1255;124278;-87
2023/03/05 11:25:50;;;;;;;;;;;;;;;4.09;45.08;100239.01;107394;1257;123790;-86
2023/03/05 11:32:11;;;;;;;;;;;;;;;4.42;44.43;100235.19;107238;1255;123717;-87
2023/03/05 11:38:00;;;;;;;;;;;;;;;4.76;44.33;100222.98;107634;1254;74811;-83
2023/03/05 11:47:34;;;;;;;;;;;;;;;4.73;42.91;100225.48;107310;1256;61396;-87
2023/03/05 11:50:25;;;;;;;;;;;;;;;4.54;43.11;100224.19;107284;1257;60611;-86
2023/03/05 12:02:44;;;;;;;;;;;;;;;3.49;42.85;100213.48;107775;1255;60973;-88
2023/03/05 12:05:14;;;;;;;;;;;;;;;3.51;43.30;100213.59;107813;1254;61129;-84
2023/03/05 12:14:25;;;;;;;;;;;;;;;4.00;43.41;100212.75;107665;1254;71068;-83
2023/03/05 12:16:55;;;;;;;;;;;;;;;4.05;41.90;100210.55;107643;1254;59741;-82
2023/03/05 12:19:29;;;;;;;;;;;;;;;3.95;42.17;100203.49;107740;1254;123699;-82
2023/03/05 12:21:57;;;;;;;;;;;;;;;3.97;42.43;100208.09;107945;1258;75156;-82
2023/03/05 12:24:26;;;;;;;;;;;;;;;3.99;42.49;100206.14;107814;1254;124437;-81
2023/03/05 12:27:02;;;;;;;;;;;;;;;4.05;42.37;100202.90;108057;1258;71383;-81
2023/03/05 12:29:41;;;;;;;;;;;;;;;4.16;42.55;100197.09;107869;1255;62273;-81
2023/03/05 12:32:27;;;;;;;;;;;;;;;4.26;42.23;100206.39;107687;1254;123680;-86
2023/03/05 12:35:03;;;;;;;;;;;;;;;4.14;41.95;100205.86;107768;1254;73437;-81
2023/03/05 12:50:58;;;;;;;;;;;;;;;3.36;42.62;100191.93;107531;1254;73366;-87
2023/03/05 12:53:47;;;;;;;;;;;;;;;3.33;42.60;100190.55;107385;1255;67111;-86
2023/03/05 12:56:25;;;;;;;;;;;;;;;3.37;43.01;100190.73;107571;1254;123625;-86
2023/03/05 12:59:00;;;;;;;;;;;;;;;3.44;43.12;100187.79;107688;1254;59645;-88
2023/03/05 13:01:33;;;;;;;;;;;;;;;3.50;42.46;100199.17;107339;1261;123883;-81
2023/03/05 13:04:03;;;;;;;;;;;;;;;3.44;42.02;100196.98;107397;1257;74691;-82
2023/03/05 13:06:33;;;;;;;;;;;;;;;3.36;42.62;100186.19;107553;1257;123964;-84
2023/03/05 13:09:30;;;;;;;;;;;;;;;3.31;42.82;100196.70;107544;1257;72873;-85
2023/03/05 13:12:07;;;;;;;;;;;;;;;3.19;42.73;100192.04;107364;1261;124027;-84
2023/03/05 13:14:55;;;;;;;;;;;;;;;3.09;42.84;100191.73;107607;1257;59832;-85
2023/03/05 13:17:30;;;;;;;;;;;;;;;3.04;43.07;100189.61;107881;1257;73405;-94
2023/03/05 13:20:17;;;;;;;;;;;;;;;3.08;43.10;100189.10;107811;1257;123785;-90
2023/03/05 13:26:07;;;;;;;;;;;;;;;3.26;43.77;100190.95;107505;1257;123879;-90
2023/03/05 13:28:44;;;;;;;;;;;;;;;3.23;43.71;100190.65;107461;1257;59829;-85
2023/03/05 13:31:24;;;;;;;;;;;;;;;3.19;43.62;100183.84;107511;1257;124082;-85
2023/03/05 13:33:53;;;;;;;;;;;;;;;3.09;43.32;100187.92;107977;1256;67073;-85
2023/03/05 13:36:21;;;;;;;;;;;;;;;2.96;43.15;100189.92;107617;1256;123928;-83
2023/03/05 13:38:51;;;;;;;;;;;;;;;2.85;43.29;100186.84;107549;1257;59388;-83
2023/03/05 13:41:20;;;;;;;;;;;;;;;2.83;43.29;100186.37;107875;1257;61678;-83
2023/03/05 13:43:55;;;;;;;;;;;;;;;2.85;43.57;100184.92;107873;1255;124380;-83
2023/03/05 13:46:23;;;;;;;;;;;;;;;2.91;43.76;100180.52;107801;1260;66945;-83
2023/03/05 13:49:09;;;;;;;;;;;;;;;2.97;43.75;100182.16;107419;1257;123806;-87
2023/03/05 13:51:50;;;;;;;;;;;;;;;3.02;43.96;100176.35;107377;1257;60345;-87
2023/03/05 13:57:54;;;;;;;;;;;;;;;3.26;44.12;100174.66;107538;1257;74611;-89
2023/03/05 14:00:24;;;;;;;;;;;;;;;3.35;44.19;100175.73;107437;1256;124699;-83
2023/03/05 14:06:01;;;;;;;;;;;;;;;3.32;44.48;100171.46;107249;1257;124003;-83
2023/03/05 14:08:28;;;;;;;;;;;;;;;3.28;44.34;100171.98;107499;1257;60130;-83
2023/03/05 14:17:55;;;;;;;;;;;;;;;3.03;44.20;100172.75;107425;1256;72542;-87
2023/03/05 14:23:56;;;;;;;;;;;;;;;2.97;44.19;100167.08;107313;1257;60959;-87
2023/03/05 14:29:55;;;;;;;;;;;;;;;2.93;43.98;100161.05;107473;1256;70909;-87
2023/03/05 14:35:48;;;;;;;;;;;;;;;2.89;43.30;100159.98;107674;1257;61318;-82
2023/03/05 14:38:19;;;;;;;;;;;;;;;2.87;43.08;100157.14;107464;1257;123840;-83
2023/03/05 14:40:47;;;;;;;;;;;;;;;2.86;43.05;100157.08;107528;1256;74643;-83
2023/03/05 14:43:15;;;;;;;;;;;;;;;2.85;42.84;100159.27;107440;1257;123886;-83
2023/03/05 14:45:43;;;;;;;;;;;;;;;2.82;42.60;100163.48;107778;1257;72746;-83
2023/03/05 14:48:12;;;;;;;;;;;;;;;2.80;42.69;100162.34;107790;1257;124456;-83